createdAt,value
2023-09-15T00:03:21.138Z,1.90
2023-09-15T00:08:23.208Z,1.70
2023-09-15T00:13:24.900Z,1.90
2023-09-15T00:18:26.799Z,1.90
2023-09-15T00:23:28.420Z,1.60
2023-09-15T00:28:30.320Z,1.77
2023-09-15T00:33:31.896Z,1.80
2023-09-15T00:38:33.718Z,1.60
2023-09-15T00:43:35.362Z,1.73
2023-09-15T00:48:38.719Z,1.70
2023-09-15T00:53:41.154Z,2.00
2023-09-15T00:58:43.121Z,2.30
2023-09-15T01:03:46.237Z,2.20
2023-09-15T01:08:49.635Z,1.90
2023-09-15T01:13:51.690Z,2.10
2023-09-15T01:19:03.852Z,1.90
2023-09-15T01:24:45.692Z,2.03
2023-09-15T01:29:54.895Z,1.90
2023-09-15T01:34:56.647Z,1.90
2023-09-15T01:40:00.458Z,1.80
2023-09-15T01:45:02.259Z,1.80
2023-09-15T01:50:05.209Z,1.77
2023-09-15T01:55:08.087Z,1.80
2023-09-15T02:00:11.423Z,2.10
2023-09-15T02:05:24.706Z,2.43
2023-09-15T02:10:26.327Z,1.90
2023-09-15T02:15:27.966Z,1.80
2023-09-15T02:20:31.673Z,2.00
2023-09-15T02:25:35.331Z,2.00
2023-09-15T02:30:38.692Z,1.80
2023-09-15T02:35:40.591Z,1.97
2023-09-15T02:40:42.585Z,2.50
2023-09-15T02:45:44.267Z,2.30
2023-09-15T02:50:46.484Z,2.43
2023-09-15T02:56:01.887Z,2.10
2023-09-15T03:01:15.786Z,1.80
2023-09-15T03:06:21.353Z,2.37
2023-09-15T03:11:24.508Z,2.03
2023-09-15T03:16:33.445Z,1.97
2023-09-15T03:21:35.386Z,2.20
2023-09-15T03:26:40.115Z,2.30
2023-09-15T03:31:42.540Z,1.90
2023-09-15T03:36:46.892Z,2.10
2023-09-15T03:41:49.007Z,1.83
2023-09-15T03:46:50.787Z,2.37
2023-09-15T03:51:53.748Z,2.47
2023-09-15T03:56:55.784Z,2.33
2023-09-15T04:01:58.656Z,2.13
2023-09-15T04:07:00.616Z,1.93
2023-09-15T04:12:04.943Z,1.93
2023-09-15T04:17:06.672Z,2.23
2023-09-15T04:22:08.672Z,2.23
2023-09-15T04:27:10.388Z,2.20
2023-09-15T04:32:12.285Z,2.13
2023-09-15T04:37:14.384Z,2.10
2023-09-15T04:42:16.682Z,2.30
2023-09-15T04:47:31.187Z,2.43
2023-09-15T04:52:34.851Z,2.50
2023-09-15T04:57:36.869Z,2.10
2023-09-15T05:02:38.841Z,2.20
2023-09-15T05:07:40.529Z,1.80
2023-09-15T05:12:42.235Z,2.30
2023-09-15T05:17:45.912Z,2.40
2023-09-15T05:22:48.353Z,2.00
2023-09-15T05:27:51.068Z,2.50
2023-09-15T05:32:52.748Z,2.23
2023-09-15T05:37:54.663Z,2.20
2023-09-15T05:42:58.438Z,2.23
2023-09-15T05:48:00.219Z,2.23
2023-09-15T05:53:01.889Z,2.50
2023-09-15T05:58:04.703Z,2.60
2023-09-15T06:03:06.680Z,2.40
2023-09-15T06:08:09.409Z,2.27
2023-09-15T06:13:11.139Z,2.10
2023-09-15T06:18:14.011Z,2.00
2023-09-15T06:23:15.652Z,2.00
2023-09-15T06:28:22.176Z,1.77
2023-09-15T06:33:24.210Z,1.80
2023-09-15T06:38:25.894Z,1.80
2023-09-15T06:43:27.547Z,1.83
2023-09-15T06:48:31.498Z,1.80
2023-09-15T06:53:33.182Z,1.83
2023-09-15T06:58:34.995Z,1.67
2023-09-15T07:03:39.080Z,1.55
2023-09-15T07:08:40.990Z,1.50
2023-09-15T07:13:42.634Z,1.20
2023-09-15T07:18:45.243Z,1.50
2023-09-15T07:23:47.412Z,1.53
2023-09-15T07:28:49.579Z,1.60
2023-09-15T07:33:51.532Z,1.60
2023-09-15T07:38:54.257Z,1.80
2023-09-15T07:43:58.359Z,2.00
2023-09-15T07:49:00.231Z,1.73
2023-09-15T07:54:02.443Z,1.73
2023-09-15T07:59:04.386Z,1.67
2023-09-15T08:04:07.104Z,1.90
2023-09-15T08:09:09.992Z,1.37
2023-09-15T08:14:11.683Z,1.50
2023-09-15T08:19:13.889Z,1.50
2023-09-15T08:24:15.859Z,1.30
2023-09-15T08:29:17.773Z,1.20
2023-09-15T08:34:19.455Z,1.73
2023-09-15T08:39:21.179Z,1.27
2023-09-15T08:44:24.488Z,1.67
2023-09-15T08:49:26.239Z,1.30
2023-09-15T08:54:27.935Z,1.25
2023-09-15T08:59:29.836Z,1.15
2023-09-15T09:04:31.660Z,1.40
2023-09-15T09:09:33.812Z,1.10
2023-09-15T09:14:36.258Z,1.20
2023-09-15T09:19:39.020Z,1.25
2023-09-15T09:24:40.820Z,1.50
2023-09-15T09:29:42.495Z,1.10
2023-09-15T09:34:48.196Z,1.10
2023-09-15T09:39:50.134Z,1.10
2023-09-15T09:44:54.831Z,1.10
2023-09-15T09:49:56.588Z,1.42
2023-09-15T09:55:02.341Z,1.30
2023-09-15T10:00:05.260Z,1.17
2023-09-15T10:05:09.139Z,1.20
2023-09-15T10:10:11.021Z,1.42
2023-09-15T10:15:13.954Z,1.55
2023-09-15T10:20:15.739Z,1.17
2023-09-15T10:25:18.899Z,1.17
2023-09-15T10:30:20.664Z,1.10
2023-09-15T10:35:23.777Z,1.10
2023-09-15T10:40:25.474Z,1.20
2023-09-15T10:45:27.158Z,1.30
2023-09-15T10:50:40.981Z,1.13
2023-09-15T10:55:42.599Z,1.25
2023-09-15T11:00:44.326Z,0.95
2023-09-15T11:05:46.110Z,1.00
2023-09-15T11:10:47.927Z,1.23
2023-09-15T11:15:50.518Z,1.38
2023-09-15T11:20:52.316Z,1.10
2023-09-15T11:26:16.856Z,1.30
2023-09-15T11:31:27.573Z,1.33
2023-09-15T11:36:31.641Z,1.27
2023-09-15T11:41:33.527Z,1.15
2023-09-15T11:46:37.344Z,1.20
2023-09-15T11:51:39.411Z,1.00
2023-09-15T11:56:41.062Z,1.20
2023-09-15T12:01:46.348Z,1.23
2023-09-15T12:06:48.088Z,1.40
2023-09-15T12:11:49.969Z,1.20
2023-09-15T12:16:51.582Z,1.23
2023-09-15T12:21:54.043Z,1.20
2023-09-15T12:26:55.996Z,1.10
2023-09-15T12:31:58.795Z,1.08
2023-09-15T12:37:07.888Z,1.10
2023-09-15T12:42:14.850Z,1.20
2023-09-15T12:47:17.141Z,1.33
2023-09-15T12:52:18.882Z,1.38
2023-09-15T12:57:21.708Z,1.15
2023-09-15T13:02:23.509Z,1.30
2023-09-15T13:07:25.127Z,1.40
2023-09-15T13:12:26.855Z,1.30
2023-09-15T13:17:28.691Z,1.05
2023-09-15T13:22:30.557Z,1.48
2023-09-15T13:27:33.696Z,1.17
2023-09-15T13:32:35.468Z,1.17
2023-09-15T13:37:37.811Z,1.42
2023-09-15T13:42:39.592Z,1.30
2023-09-15T13:47:42.200Z,1.35
2023-09-15T13:52:43.925Z,1.25
2023-09-15T13:57:45.628Z,1.17
2023-09-15T14:02:47.307Z,1.50
2023-09-15T14:07:51.923Z,1.10
2023-09-15T14:12:53.525Z,1.23
2023-09-15T14:17:55.268Z,1.45
2023-09-15T14:22:57.410Z,1.15
2023-09-15T14:27:59.490Z,1.30
2023-09-15T14:33:01.117Z,1.60
2023-09-15T14:38:02.918Z,1.40
2023-09-15T14:43:04.965Z,1.30
2023-09-15T14:48:06.739Z,1.30
2023-09-15T14:53:08.480Z,1.33
2023-09-15T14:58:10.116Z,1.25
2023-09-15T15:03:11.879Z,1.17
2023-09-15T15:08:13.618Z,1.20
2023-09-15T15:13:15.435Z,1.35
2023-09-15T15:18:18.808Z,1.33
2023-09-15T15:23:20.585Z,1.30
2023-09-15T15:28:22.908Z,1.30
2023-09-15T15:33:24.955Z,1.40
2023-09-15T15:38:26.966Z,1.60
2023-09-15T15:43:29.029Z,1.45
2023-09-15T15:48:33.578Z,1.25
2023-09-15T15:53:36.350Z,1.40
2023-09-15T15:58:37.993Z,1.45
2023-09-15T16:03:39.708Z,1.60
2023-09-15T16:08:41.547Z,1.20
2023-09-15T16:13:43.142Z,1.35
2023-09-15T16:18:44.944Z,1.20
2023-09-15T16:23:46.637Z,1.45
2023-09-15T16:28:48.521Z,1.42
2023-09-15T16:33:51.070Z,1.40
2023-09-15T16:38:54.188Z,1.60
2023-09-15T16:43:55.765Z,1.70
2023-09-15T16:48:57.443Z,1.27
2023-09-15T16:53:59.125Z,1.48
2023-09-15T16:59:00.828Z,1.27
2023-09-15T17:04:02.623Z,1.40
2023-09-15T17:09:04.448Z,1.23
2023-09-15T17:14:06.130Z,1.38
2023-09-15T17:19:08.058Z,1.73
2023-09-15T17:24:09.792Z,1.50
2023-09-15T17:29:12.389Z,1.70
2023-09-15T17:34:15.727Z,1.90
2023-09-15T17:39:17.361Z,1.70
2023-09-15T17:44:20.026Z,1.77
2023-09-15T17:49:21.798Z,1.67
2023-09-15T17:54:25.887Z,1.60
2023-09-15T17:59:27.744Z,1.90
2023-09-15T18:04:29.372Z,2.10
2023-09-15T18:09:31.339Z,1.60
2023-09-15T18:14:33.380Z,1.80
2023-09-15T18:19:35.003Z,2.00
2023-09-15T18:24:37.517Z,1.93
2023-09-15T18:29:39.131Z,1.60
2023-09-15T18:34:40.748Z,1.73
2023-09-15T18:39:42.441Z,1.63
2023-09-15T18:44:44.082Z,1.77
2023-09-15T18:49:45.747Z,2.00
2023-09-15T18:54:47.835Z,1.90
2023-09-15T18:59:49.536Z,1.80
2023-09-15T19:04:52.001Z,2.10
2023-09-15T19:09:53.724Z,2.10
2023-09-15T19:14:55.346Z,2.17
2023-09-15T19:19:57.030Z,2.23
2023-09-15T19:24:58.841Z,1.97
2023-09-15T19:30:00.597Z,2.10
2023-09-15T19:35:02.281Z,2.00
2023-09-15T19:40:05.815Z,2.03
2023-09-15T19:45:13.166Z,1.93
2023-09-15T19:50:14.882Z,2.20
2023-09-15T19:55:16.607Z,2.20
2023-09-15T20:00:18.708Z,2.43
2023-09-15T20:05:24.789Z,2.20
2023-09-15T20:10:29.806Z,2.20
2023-09-15T20:15:31.504Z,1.70
2023-09-15T20:20:39.072Z,2.30
2023-09-15T20:25:42.112Z,2.23
2023-09-15T20:30:44.264Z,2.60
2023-09-15T20:35:46.154Z,2.30
2023-09-15T20:40:47.766Z,2.80
2023-09-15T20:45:49.552Z,2.57
2023-09-15T20:50:51.387Z,2.43
2023-09-15T20:55:52.975Z,2.50
2023-09-15T21:00:54.733Z,2.30
2023-09-15T21:05:57.031Z,2.27
2023-09-15T21:10:58.856Z,2.40
2023-09-15T21:16:01.627Z,2.30
2023-09-15T21:21:04.655Z,2.10
2023-09-15T21:26:06.323Z,2.03
2023-09-15T21:31:09.701Z,2.00
2023-09-15T21:36:12.278Z,2.07
2023-09-15T21:41:13.979Z,2.10
2023-09-15T21:46:15.749Z,1.87
2023-09-15T21:51:17.462Z,2.13
2023-09-15T21:56:19.037Z,2.27
2023-09-15T22:01:20.706Z,2.23
2023-09-15T22:06:22.404Z,2.20
2023-09-15T22:11:24.543Z,2.20
2023-09-15T22:16:26.191Z,2.03
2023-09-15T22:21:29.691Z,2.00
2023-09-15T22:26:31.335Z,2.10
2023-09-15T22:31:33.549Z,1.80
2023-09-15T22:36:35.290Z,2.17
2023-09-15T22:41:38.814Z,2.30
2023-09-15T22:46:40.528Z,2.50
2023-09-15T22:51:43.680Z,2.30
2023-09-15T22:56:47.441Z,1.90
2023-09-15T23:01:49.174Z,2.20
2023-09-15T23:06:51.101Z,2.10
2023-09-15T23:11:52.851Z,2.20
2023-09-15T23:16:54.505Z,2.23
2023-09-15T23:21:56.262Z,2.20
2023-09-15T23:26:58.142Z,2.20
2023-09-15T23:32:00.597Z,2.50
2023-09-15T23:37:02.371Z,1.90
2023-09-15T23:42:04.358Z,2.40
2023-09-15T23:47:06.418Z,2.30
2023-09-15T23:52:08.118Z,2.20
2023-09-15T23:57:10.440Z,2.03
